Waswanipi, Canada
Current Conditions -  °F | °C
As of 8:11 PM on Saturday 22 Nov 2014 (Local Time) from CYNM Reporting Station
Freezing Rain Freezing Rain  
Wind Chill: 20°   Ceiling: 500
Heat Index: 28°   Visibility: 2.5mi
Dew Point: 27°   Wind: 8mph
Humidity: 93%   Direction: 340°NNW
Pressure: 29.63"   Gusts: NA
Location:  49.65°N, 76.48°W
Report Text: CYNM 230111Z AUTO 34007KT 2 1/2SM -FZRA BR BKN005 OVC011 M02/M03 A2963 RMK ICG SLP052
Loading
Personal Weather Stations






























Interactive Weather Map New forecast layout! Learn more

10-Day Weather Forecast

Advertisements
Track Severe Weather on mobile